sensor_id;sensor_type;location;lat;lon;timestamp;P1;durP1;ratioP1;P2;durP2;ratioP2
25359;SDS011;13311;51.386;0.016;2023-07-31T00:04:14;8.27;;;4.22;;
25359;SDS011;13311;51.386;0.016;2023-07-31T00:09:14;10.52;;;3.95;;
25359;SDS011;13311;51.386;0.016;2023-07-31T00:14:15;6.60;;;3.42;;
25359;SDS011;13311;51.386;0.016;2023-07-31T00:19:16;7.57;;;3.13;;
25359;SDS011;13311;51.386;0.016;2023-07-31T00:24:16;5.55;;;2.70;;
25359;SDS011;13311;51.386;0.016;2023-07-31T00:29:17;6.20;;;2.20;;
25359;SDS011;13311;51.386;0.016;2023-07-31T00:34:18;5.53;;;2.55;;
25359;SDS011;13311;51.386;0.016;2023-07-31T00:39:18;3.72;;;1.98;;
25359;SDS011;13311;51.386;0.016;2023-07-31T00:44:19;3.13;;;1.58;;
25359;SDS011;13311;51.386;0.016;2023-07-31T00:49:20;5.03;;;1.80;;
25359;SDS011;13311;51.386;0.016;2023-07-31T00:54:22;4.30;;;1.83;;
25359;SDS011;13311;51.386;0.016;2023-07-31T00:59:23;3.58;;;1.40;;
25359;SDS011;13311;51.386;0.016;2023-07-31T01:04:24;2.55;;;1.33;;
25359;SDS011;13311;51.386;0.016;2023-07-31T01:15:05;0.65;;;0.60;;
25359;SDS011;13311;51.386;0.016;2023-07-31T01:20:13;1.67;;;0.80;;
25359;SDS011;13311;51.386;0.016;2023-07-31T01:30:56;4.00;;;1.05;;
25359;SDS011;13311;51.386;0.016;2023-07-31T01:36:00;2.78;;;0.93;;
25359;SDS011;13311;51.386;0.016;2023-07-31T01:41:01;1.40;;;0.65;;
25359;SDS011;13311;51.386;0.016;2023-07-31T01:46:02;2.03;;;1.00;;
25359;SDS011;13311;51.386;0.016;2023-07-31T01:51:02;4.63;;;1.13;;
25359;SDS011;13311;51.386;0.016;2023-07-31T01:56:03;1.80;;;1.10;;
25359;SDS011;13311;51.386;0.016;2023-07-31T02:01:04;2.15;;;1.20;;
25359;SDS011;13311;51.386;0.016;2023-07-31T02:06:05;1.85;;;1.25;;
25359;SDS011;13311;51.386;0.016;2023-07-31T02:11:05;1.45;;;0.93;;
25359;SDS011;13311;51.386;0.016;2023-07-31T02:16:06;2.42;;;1.35;;
25359;SDS011;13311;51.386;0.016;2023-07-31T02:21:07;3.15;;;1.17;;
25359;SDS011;13311;51.386;0.016;2023-07-31T02:26:08;2.00;;;0.95;;
25359;SDS011;13311;51.386;0.016;2023-07-31T02:31:08;2.38;;;1.00;;
25359;SDS011;13311;51.386;0.016;2023-07-31T02:36:09;2.08;;;1.30;;
25359;SDS011;13311;51.386;0.016;2023-07-31T02:41:10;1.65;;;0.90;;
25359;SDS011;13311;51.386;0.016;2023-07-31T02:46:10;3.22;;;1.20;;
25359;SDS011;13311;51.386;0.016;2023-07-31T02:51:11;1.25;;;0.90;;
25359;SDS011;13311;51.386;0.016;2023-07-31T02:56:12;3.92;;;1.02;;
25359;SDS011;13311;51.386;0.016;2023-07-31T03:01:12;2.85;;;1.05;;
25359;SDS011;13311;51.386;0.016;2023-07-31T03:06:13;3.70;;;1.02;;
25359;SDS011;13311;51.386;0.016;2023-07-31T03:11:14;4.40;;;1.40;;
25359;SDS011;13311;51.386;0.016;2023-07-31T03:16:14;4.75;;;1.10;;
25359;SDS011;13311;51.386;0.016;2023-07-31T03:21:15;3.17;;;1.10;;
25359;SDS011;13311;51.386;0.016;2023-07-31T03:26:16;1.88;;;1.00;;
25359;SDS011;13311;51.386;0.016;2023-07-31T03:31:17;1.98;;;0.88;;
25359;SDS011;13311;51.386;0.016;2023-07-31T03:36:17;2.20;;;0.80;;
25359;SDS011;13311;51.386;0.016;2023-07-31T03:41:18;2.65;;;0.82;;
25359;SDS011;13311;51.386;0.016;2023-07-31T03:46:19;1.40;;;0.77;;
25359;SDS011;13311;51.386;0.016;2023-07-31T03:51:20;1.30;;;0.90;;
25359;SDS011;13311;51.386;0.016;2023-07-31T03:56:20;1.88;;;0.63;;
25359;SDS011;13311;51.386;0.016;2023-07-31T04:01:21;1.85;;;0.77;;
25359;SDS011;13311;51.386;0.016;2023-07-31T04:06:22;2.45;;;0.68;;
25359;SDS011;13311;51.386;0.016;2023-07-31T04:11:23;0.90;;;0.65;;
25359;SDS011;13311;51.386;0.016;2023-07-31T04:16:23;1.67;;;0.80;;
25359;SDS011;13311;51.386;0.016;2023-07-31T04:21:24;3.70;;;1.45;;
25359;SDS011;13311;51.386;0.016;2023-07-31T04:26:25;1.40;;;0.80;;
25359;SDS011;13311;51.386;0.016;2023-07-31T04:31:25;5.45;;;0.85;;
25359;SDS011;13311;51.386;0.016;2023-07-31T04:36:26;2.75;;;0.70;;
25359;SDS011;13311;51.386;0.016;2023-07-31T04:41:27;1.27;;;0.95;;
25359;SDS011;13311;51.386;0.016;2023-07-31T04:46:28;3.22;;;1.00;;
25359;SDS011;13311;51.386;0.016;2023-07-31T04:51:28;1.95;;;0.90;;
25359;SDS011;13311;51.386;0.016;2023-07-31T04:56:29;1.17;;;0.75;;
25359;SDS011;13311;51.386;0.016;2023-07-31T05:01:30;1.00;;;0.65;;
25359;SDS011;13311;51.386;0.016;2023-07-31T05:06:30;1.45;;;0.80;;
25359;SDS011;13311;51.386;0.016;2023-07-31T05:11:32;2.05;;;1.00;;
25359;SDS011;13311;51.386;0.016;2023-07-31T05:16:32;1.27;;;0.80;;
25359;SDS011;13311;51.386;0.016;2023-07-31T05:21:33;1.60;;;1.10;;
25359;SDS011;13311;51.386;0.016;2023-07-31T05:26:34;1.20;;;0.82;;
25359;SDS011;13311;51.386;0.016;2023-07-31T05:31:34;3.00;;;1.00;;
25359;SDS011;13311;51.386;0.016;2023-07-31T05:36:35;1.60;;;1.02;;
25359;SDS011;13311;51.386;0.016;2023-07-31T05:41:36;1.95;;;0.80;;
25359;SDS011;13311;51.386;0.016;2023-07-31T05:46:36;1.88;;;0.90;;
25359;SDS011;13311;51.386;0.016;2023-07-31T05:51:37;5.40;;;1.30;;
25359;SDS011;13311;51.386;0.016;2023-07-31T05:56:38;3.80;;;1.20;;
25359;SDS011;13311;51.386;0.016;2023-07-31T06:01:39;2.80;;;0.90;;
25359;SDS011;13311;51.386;0.016;2023-07-31T06:06:40;2.05;;;1.05;;
25359;SDS011;13311;51.386;0.016;2023-07-31T06:11:40;2.60;;;1.42;;
25359;SDS011;13311;51.386;0.016;2023-07-31T06:16:41;1.70;;;0.88;;
25359;SDS011;13311;51.386;0.016;2023-07-31T06:21:42;1.42;;;0.73;;
25359;SDS011;13311;51.386;0.016;2023-07-31T06:26:43;1.73;;;0.90;;
25359;SDS011;13311;51.386;0.016;2023-07-31T06:31:44;1.50;;;0.93;;
25359;SDS011;13311;51.386;0.016;2023-07-31T06:36:45;4.10;;;1.33;;
25359;SDS011;13311;51.386;0.016;2023-07-31T06:41:46;3.55;;;1.25;;
25359;SDS011;13311;51.386;0.016;2023-07-31T06:46:46;4.57;;;2.05;;
25359;SDS011;13311;51.386;0.016;2023-07-31T06:51:47;4.10;;;1.40;;
25359;SDS011;13311;51.386;0.016;2023-07-31T06:56:48;2.28;;;1.10;;
25359;SDS011;13311;51.386;0.016;2023-07-31T07:01:49;3.40;;;0.98;;
25359;SDS011;13311;51.386;0.016;2023-07-31T07:06:49;4.07;;;1.17;;
25359;SDS011;13311;51.386;0.016;2023-07-31T07:11:50;2.17;;;0.90;;
25359;SDS011;13311;51.386;0.016;2023-07-31T07:16:51;2.55;;;1.10;;
25359;SDS011;13311;51.386;0.016;2023-07-31T07:21:52;1.95;;;0.98;;
25359;SDS011;13311;51.386;0.016;2023-07-31T07:26:52;5.75;;;1.42;;
25359;SDS011;13311;51.386;0.016;2023-07-31T07:31:53;3.50;;;1.02;;
25359;SDS011;13311;51.386;0.016;2023-07-31T07:36:54;4.70;;;1.50;;
25359;SDS011;13311;51.386;0.016;2023-07-31T07:41:55;2.13;;;1.05;;
25359;SDS011;13311;51.386;0.016;2023-07-31T07:46:56;4.55;;;1.27;;
25359;SDS011;13311;51.386;0.016;2023-07-31T07:51:56;4.80;;;1.80;;
25359;SDS011;13311;51.386;0.016;2023-07-31T07:56:57;5.53;;;1.85;;
25359;SDS011;13311;51.386;0.016;2023-07-31T08:01:59;6.97;;;1.77;;
25359;SDS011;13311;51.386;0.016;2023-07-31T08:06:59;3.95;;;1.65;;
25359;SDS011;13311;51.386;0.016;2023-07-31T08:12:00;2.60;;;1.38;;
25359;SDS011;13311;51.386;0.016;2023-07-31T08:17:03;4.45;;;1.60;;
25359;SDS011;13311;51.386;0.016;2023-07-31T08:22:04;3.38;;;1.85;;
25359;SDS011;13311;51.386;0.016;2023-07-31T08:27:05;2.45;;;1.77;;
25359;SDS011;13311;51.386;0.016;2023-07-31T08:32:06;5.03;;;1.95;;
25359;SDS011;13311;51.386;0.016;2023-07-31T08:37:07;4.28;;;2.03;;
25359;SDS011;13311;51.386;0.016;2023-07-31T08:42:08;2.17;;;1.88;;
25359;SDS011;13311;51.386;0.016;2023-07-31T08:47:09;2.65;;;1.80;;
25359;SDS011;13311;51.386;0.016;2023-07-31T08:52:10;2.83;;;1.85;;
25359;SDS011;13311;51.386;0.016;2023-07-31T08:57:11;2.05;;;1.50;;
25359;SDS011;13311;51.386;0.016;2023-07-31T09:02:13;5.75;;;2.60;;
25359;SDS011;13311;51.386;0.016;2023-07-31T09:07:16;3.85;;;2.13;;
25359;SDS011;13311;51.386;0.016;2023-07-31T09:12:17;2.08;;;1.48;;
25359;SDS011;13311;51.386;0.016;2023-07-31T09:17:34;4.20;;;1.45;;
25359;SDS011;13311;51.386;0.016;2023-07-31T09:22:36;2.67;;;1.73;;
25359;SDS011;13311;51.386;0.016;2023-07-31T09:27:49;1.60;;;1.40;;
25359;SDS011;13311;51.386;0.016;2023-07-31T09:33:02;3.15;;;1.35;;
25359;SDS011;13311;51.386;0.016;2023-07-31T09:38:07;3.50;;;2.10;;
25359;SDS011;13311;51.386;0.016;2023-07-31T09:43:16;2.08;;;1.38;;
25359;SDS011;13311;51.386;0.016;2023-07-31T09:48:22;3.47;;;1.25;;
25359;SDS011;13311;51.386;0.016;2023-07-31T09:53:30;2.20;;;1.15;;
25359;SDS011;13311;51.386;0.016;2023-07-31T09:58:30;2.15;;;0.93;;
25359;SDS011;13311;51.386;0.016;2023-07-31T10:03:36;12.98;;;3.10;;
25359;SDS011;13311;51.386;0.016;2023-07-31T10:08:38;9.13;;;1.88;;
25359;SDS011;13311;51.386;0.016;2023-07-31T10:13:40;2.63;;;0.80;;
25359;SDS011;13311;51.386;0.016;2023-07-31T10:18:42;1.40;;;0.90;;
25359;SDS011;13311;51.386;0.016;2023-07-31T10:23:43;1.45;;;0.90;;
25359;SDS011;13311;51.386;0.016;2023-07-31T10:28:45;2.60;;;1.08;;
25359;SDS011;13311;51.386;0.016;2023-07-31T10:33:48;0.98;;;0.88;;
25359;SDS011;13311;51.386;0.016;2023-07-31T10:38:49;1.90;;;1.10;;
25359;SDS011;13311;51.386;0.016;2023-07-31T10:43:54;1.90;;;1.20;;
25359;SDS011;13311;51.386;0.016;2023-07-31T10:49:01;2.25;;;1.38;;
25359;SDS011;13311;51.386;0.016;2023-07-31T10:54:13;1.55;;;1.20;;
25359;SDS011;13311;51.386;0.016;2023-07-31T10:59:18;2.05;;;1.35;;
25359;SDS011;13311;51.386;0.016;2023-07-31T11:04:24;2.10;;;1.13;;
25359;SDS011;13311;51.386;0.016;2023-07-31T11:09:29;2.25;;;1.10;;
25359;SDS011;13311;51.386;0.016;2023-07-31T11:26:24;2.58;;;1.25;;
25359;SDS011;13311;51.386;0.016;2023-07-31T11:31:25;6.57;;;1.33;;
25359;SDS011;13311;51.386;0.016;2023-07-31T11:36:26;3.45;;;1.45;;
25359;SDS011;13311;51.386;0.016;2023-07-31T11:41:28;1.63;;;1.30;;
25359;SDS011;13311;51.386;0.016;2023-07-31T11:46:32;3.30;;;1.77;;
25359;SDS011;13311;51.386;0.016;2023-07-31T11:51:33;2.97;;;1.48;;
25359;SDS011;13311;51.386;0.016;2023-07-31T11:56:33;2.50;;;1.17;;
25359;SDS011;13311;51.386;0.016;2023-07-31T12:01:34;3.40;;;1.50;;
25359;SDS011;13311;51.386;0.016;2023-07-31T12:06:36;5.03;;;1.65;;
25359;SDS011;13311;51.386;0.016;2023-07-31T12:11:46;3.28;;;1.70;;
25359;SDS011;13311;51.386;0.016;2023-07-31T12:16:47;4.20;;;1.95;;
25359;SDS011;13311;51.386;0.016;2023-07-31T12:21:54;7.18;;;2.10;;
25359;SDS011;13311;51.386;0.016;2023-07-31T12:26:59;4.00;;;1.67;;
25359;SDS011;13311;51.386;0.016;2023-07-31T12:31:59;3.45;;;1.80;;
25359;SDS011;13311;51.386;0.016;2023-07-31T12:37:00;4.85;;;1.75;;
25359;SDS011;13311;51.386;0.016;2023-07-31T12:42:01;2.70;;;1.50;;
25359;SDS011;13311;51.386;0.016;2023-07-31T12:47:02;2.60;;;1.70;;
25359;SDS011;13311;51.386;0.016;2023-07-31T12:52:04;1.98;;;1.48;;
25359;SDS011;13311;51.386;0.016;2023-07-31T12:57:05;2.90;;;1.70;;
25359;SDS011;13311;51.386;0.016;2023-07-31T13:02:06;3.55;;;2.17;;
25359;SDS011;13311;51.386;0.016;2023-07-31T13:07:06;3.63;;;2.13;;
25359;SDS011;13311;51.386;0.016;2023-07-31T13:12:07;3.88;;;1.90;;
25359;SDS011;13311;51.386;0.016;2023-07-31T13:17:08;5.22;;;2.22;;
25359;SDS011;13311;51.386;0.016;2023-07-31T13:22:09;5.05;;;2.85;;
25359;SDS011;13311;51.386;0.016;2023-07-31T13:27:10;7.30;;;2.60;;
25359;SDS011;13311;51.386;0.016;2023-07-31T13:32:11;8.25;;;2.90;;
25359;SDS011;13311;51.386;0.016;2023-07-31T13:37:12;5.78;;;2.67;;
25359;SDS011;13311;51.386;0.016;2023-07-31T13:42:13;8.50;;;3.20;;
25359;SDS011;13311;51.386;0.016;2023-07-31T13:47:13;7.57;;;4.13;;
25359;SDS011;13311;51.386;0.016;2023-07-31T13:52:14;6.45;;;3.30;;
25359;SDS011;13311;51.386;0.016;2023-07-31T13:57:15;8.98;;;3.65;;
25359;SDS011;13311;51.386;0.016;2023-07-31T14:02:16;8.52;;;4.03;;
25359;SDS011;13311;51.386;0.016;2023-07-31T14:07:16;8.23;;;3.92;;
25359;SDS011;13311;51.386;0.016;2023-07-31T14:12:17;7.80;;;5.05;;
25359;SDS011;13311;51.386;0.016;2023-07-31T14:17:18;7.90;;;4.13;;
25359;SDS011;13311;51.386;0.016;2023-07-31T14:22:28;9.38;;;3.85;;
25359;SDS011;13311;51.386;0.016;2023-07-31T14:27:30;4.57;;;2.78;;
25359;SDS011;13311;51.386;0.016;2023-07-31T14:32:31;10.00;;;4.20;;
25359;SDS011;13311;51.386;0.016;2023-07-31T14:37:38;9.15;;;3.97;;
25359;SDS011;13311;51.386;0.016;2023-07-31T14:42:44;8.43;;;3.67;;
25359;SDS011;13311;51.386;0.016;2023-07-31T14:47:44;5.80;;;3.33;;
25359;SDS011;13311;51.386;0.016;2023-07-31T14:52:45;6.15;;;3.83;;
25359;SDS011;13311;51.386;0.016;2023-07-31T14:57:46;7.45;;;4.15;;
25359;SDS011;13311;51.386;0.016;2023-07-31T15:02:46;6.22;;;3.03;;
25359;SDS011;13311;51.386;0.016;2023-07-31T15:07:47;7.13;;;3.53;;
25359;SDS011;13311;51.386;0.016;2023-07-31T15:12:48;9.88;;;4.45;;
25359;SDS011;13311;51.386;0.016;2023-07-31T15:17:48;10.52;;;4.15;;
25359;SDS011;13311;51.386;0.016;2023-07-31T15:22:49;6.72;;;3.67;;
25359;SDS011;13311;51.386;0.016;2023-07-31T15:27:50;9.85;;;4.43;;
25359;SDS011;13311;51.386;0.016;2023-07-31T15:32:51;8.18;;;3.80;;
25359;SDS011;13311;51.386;0.016;2023-07-31T15:37:52;11.88;;;6.20;;
25359;SDS011;13311;51.386;0.016;2023-07-31T15:42:53;10.40;;;5.20;;
25359;SDS011;13311;51.386;0.016;2023-07-31T15:47:54;9.55;;;5.28;;
25359;SDS011;13311;51.386;0.016;2023-07-31T15:52:54;8.43;;;4.90;;
25359;SDS011;13311;51.386;0.016;2023-07-31T15:57:55;8.90;;;4.10;;
25359;SDS011;13311;51.386;0.016;2023-07-31T16:02:56;8.15;;;3.08;;
25359;SDS011;13311;51.386;0.016;2023-07-31T16:07:56;7.18;;;3.70;;
25359;SDS011;13311;51.386;0.016;2023-07-31T16:12:57;7.65;;;4.25;;
25359;SDS011;13311;51.386;0.016;2023-07-31T16:17:58;8.27;;;4.05;;
25359;SDS011;13311;51.386;0.016;2023-07-31T16:22:59;9.25;;;5.35;;
25359;SDS011;13311;51.386;0.016;2023-07-31T16:27:59;11.05;;;4.50;;
25359;SDS011;13311;51.386;0.016;2023-07-31T16:33:00;7.75;;;3.08;;
25359;SDS011;13311;51.386;0.016;2023-07-31T16:38:01;8.02;;;3.67;;
25359;SDS011;13311;51.386;0.016;2023-07-31T16:43:01;6.28;;;2.60;;
25359;SDS011;13311;51.386;0.016;2023-07-31T16:48:02;4.15;;;2.17;;
25359;SDS011;13311;51.386;0.016;2023-07-31T16:53:03;6.38;;;3.08;;
25359;SDS011;13311;51.386;0.016;2023-07-31T16:58:04;5.05;;;2.60;;
25359;SDS011;13311;51.386;0.016;2023-07-31T17:03:05;3.67;;;2.45;;
25359;SDS011;13311;51.386;0.016;2023-07-31T17:08:05;6.70;;;3.10;;
25359;SDS011;13311;51.386;0.016;2023-07-31T17:13:07;4.70;;;2.63;;
25359;SDS011;13311;51.386;0.016;2023-07-31T17:18:08;6.47;;;2.78;;
25359;SDS011;13311;51.386;0.016;2023-07-31T17:23:09;4.07;;;2.38;;
25359;SDS011;13311;51.386;0.016;2023-07-31T17:28:09;4.47;;;2.70;;
25359;SDS011;13311;51.386;0.016;2023-07-31T17:33:10;4.95;;;2.30;;
25359;SDS011;13311;51.386;0.016;2023-07-31T17:38:11;2.65;;;2.05;;
25359;SDS011;13311;51.386;0.016;2023-07-31T17:43:12;5.35;;;2.65;;
25359;SDS011;13311;51.386;0.016;2023-07-31T17:48:12;4.13;;;2.40;;
25359;SDS011;13311;51.386;0.016;2023-07-31T17:53:13;4.57;;;3.00;;
25359;SDS011;13311;51.386;0.016;2023-07-31T17:58:14;6.28;;;2.90;;
25359;SDS011;13311;51.386;0.016;2023-07-31T18:03:15;3.88;;;1.92;;
25359;SDS011;13311;51.386;0.016;2023-07-31T18:08:15;5.35;;;2.67;;
25359;SDS011;13311;51.386;0.016;2023-07-31T18:13:16;4.88;;;2.75;;
25359;SDS011;13311;51.386;0.016;2023-07-31T18:18:17;10.25;;;3.50;;
25359;SDS011;13311;51.386;0.016;2023-07-31T18:23:18;4.80;;;2.75;;
25359;SDS011;13311;51.386;0.016;2023-07-31T18:28:20;7.32;;;3.60;;
25359;SDS011;13311;51.386;0.016;2023-07-31T18:33:21;6.35;;;2.83;;
25359;SDS011;13311;51.386;0.016;2023-07-31T18:38:22;5.43;;;3.53;;
25359;SDS011;13311;51.386;0.016;2023-07-31T18:43:22;5.90;;;3.10;;
25359;SDS011;13311;51.386;0.016;2023-07-31T18:48:23;4.85;;;2.63;;
25359;SDS011;13311;51.386;0.016;2023-07-31T18:53:24;6.80;;;2.92;;
25359;SDS011;13311;51.386;0.016;2023-07-31T18:58:25;7.00;;;2.97;;
25359;SDS011;13311;51.386;0.016;2023-07-31T19:03:26;4.22;;;2.92;;
25359;SDS011;13311;51.386;0.016;2023-07-31T19:08:27;7.00;;;2.80;;
25359;SDS011;13311;51.386;0.016;2023-07-31T19:13:28;5.00;;;3.00;;
25359;SDS011;13311;51.386;0.016;2023-07-31T19:18:29;5.43;;;3.00;;
25359;SDS011;13311;51.386;0.016;2023-07-31T19:23:30;5.03;;;2.67;;
25359;SDS011;13311;51.386;0.016;2023-07-31T19:28:31;5.55;;;2.72;;
25359;SDS011;13311;51.386;0.016;2023-07-31T19:33:32;4.93;;;2.90;;
25359;SDS011;13311;51.386;0.016;2023-07-31T19:38:32;5.07;;;3.22;;
25359;SDS011;13311;51.386;0.016;2023-07-31T19:43:34;4.55;;;2.92;;
25359;SDS011;13311;51.386;0.016;2023-07-31T19:48:35;5.90;;;2.60;;
25359;SDS011;13311;51.386;0.016;2023-07-31T19:53:35;5.57;;;2.80;;
25359;SDS011;13311;51.386;0.016;2023-07-31T19:58:38;6.40;;;2.95;;
25359;SDS011;13311;51.386;0.016;2023-07-31T20:03:38;5.50;;;3.05;;
25359;SDS011;13311;51.386;0.016;2023-07-31T20:08:39;5.60;;;3.15;;
25359;SDS011;13311;51.386;0.016;2023-07-31T20:13:40;7.57;;;3.40;;
25359;SDS011;13311;51.386;0.016;2023-07-31T20:18:40;13.68;;;4.38;;
25359;SDS011;13311;51.386;0.016;2023-07-31T20:23:43;5.15;;;3.20;;
25359;SDS011;13311;51.386;0.016;2023-07-31T20:28:44;8.02;;;3.45;;
25359;SDS011;13311;51.386;0.016;2023-07-31T20:33:46;7.97;;;3.60;;
25359;SDS011;13311;51.386;0.016;2023-07-31T20:38:47;6.20;;;3.40;;
25359;SDS011;13311;51.386;0.016;2023-07-31T20:43:47;9.85;;;3.35;;
25359;SDS011;13311;51.386;0.016;2023-07-31T20:48:48;9.82;;;3.67;;
25359;SDS011;13311;51.386;0.016;2023-07-31T20:53:49;9.40;;;3.50;;
25359;SDS011;13311;51.386;0.016;2023-07-31T20:58:51;11.35;;;4.38;;
25359;SDS011;13311;51.386;0.016;2023-07-31T21:04:04;5.68;;;2.95;;
25359;SDS011;13311;51.386;0.016;2023-07-31T21:09:05;7.50;;;3.88;;
25359;SDS011;13311;51.386;0.016;2023-07-31T21:14:06;8.77;;;4.28;;
25359;SDS011;13311;51.386;0.016;2023-07-31T21:19:07;6.82;;;3.95;;
25359;SDS011;13311;51.386;0.016;2023-07-31T21:24:08;7.20;;;4.15;;
25359;SDS011;13311;51.386;0.016;2023-07-31T21:29:09;9.43;;;4.72;;
25359;SDS011;13311;51.386;0.016;2023-07-31T21:34:10;12.80;;;4.13;;
25359;SDS011;13311;51.386;0.016;2023-07-31T21:39:10;7.15;;;3.88;;
25359;SDS011;13311;51.386;0.016;2023-07-31T21:44:12;8.23;;;3.45;;
25359;SDS011;13311;51.386;0.016;2023-07-31T21:49:12;11.98;;;4.35;;
25359;SDS011;13311;51.386;0.016;2023-07-31T21:54:13;10.70;;;4.13;;
25359;SDS011;13311;51.386;0.016;2023-07-31T21:59:14;8.38;;;3.85;;
25359;SDS011;13311;51.386;0.016;2023-07-31T22:04:14;7.47;;;3.85;;
25359;SDS011;13311;51.386;0.016;2023-07-31T22:09:15;7.75;;;3.58;;
25359;SDS011;13311;51.386;0.016;2023-07-31T22:14:16;9.50;;;3.17;;
25359;SDS011;13311;51.386;0.016;2023-07-31T22:19:16;6.38;;;3.08;;
25359;SDS011;13311;51.386;0.016;2023-07-31T22:24:17;7.95;;;3.00;;
25359;SDS011;13311;51.386;0.016;2023-07-31T22:29:18;10.13;;;3.25;;
25359;SDS011;13311;51.386;0.016;2023-07-31T22:34:19;7.72;;;2.80;;
25359;SDS011;13311;51.386;0.016;2023-07-31T22:39:20;8.40;;;3.08;;
25359;SDS011;13311;51.386;0.016;2023-07-31T22:44:21;5.80;;;2.50;;
25359;SDS011;13311;51.386;0.016;2023-07-31T22:49:21;4.50;;;2.75;;
25359;SDS011;13311;51.386;0.016;2023-07-31T22:54:22;5.32;;;3.08;;
25359;SDS011;13311;51.386;0.016;2023-07-31T22:59:23;4.45;;;2.58;;
25359;SDS011;13311;51.386;0.016;2023-07-31T23:04:23;6.82;;;3.13;;
25359;SDS011;13311;51.386;0.016;2023-07-31T23:09:24;4.35;;;2.33;;
25359;SDS011;13311;51.386;0.016;2023-07-31T23:14:25;6.07;;;3.40;;
25359;SDS011;13311;51.386;0.016;2023-07-31T23:19:25;5.25;;;3.50;;
25359;SDS011;13311;51.386;0.016;2023-07-31T23:24:26;10.13;;;3.47;;
25359;SDS011;13311;51.386;0.016;2023-07-31T23:29:27;6.25;;;3.33;;
25359;SDS011;13311;51.386;0.016;2023-07-31T23:34:27;6.18;;;3.03;;
25359;SDS011;13311;51.386;0.016;2023-07-31T23:39:28;7.85;;;3.53;;
25359;SDS011;13311;51.386;0.016;2023-07-31T23:44:29;9.90;;;3.47;;
25359;SDS011;13311;51.386;0.016;2023-07-31T23:49:29;7.22;;;3.08;;
25359;SDS011;13311;51.386;0.016;2023-07-31T23:54:30;9.30;;;3.67;;
25359;SDS011;13311;51.386;0.016;2023-07-31T23:59:31;7.80;;;2.97;;
